sensor_id;sensor_type;location;lat;lon;timestamp;P1;durP1;ratioP1;P2;durP2;ratioP2
10339;SDS011;5215;48.676;9.022;2022-08-30T00:02:33;4.32;;;3.90;;
10339;SDS011;5215;48.676;9.022;2022-08-30T00:05:00;4.13;;;3.60;;
10339;SDS011;5215;48.676;9.022;2022-08-30T00:07:26;5.65;;;3.70;;
10339;SDS011;5215;48.676;9.022;2022-08-30T00:09:53;5.53;;;3.65;;
10339;SDS011;5215;48.676;9.022;2022-08-30T00:12:20;5.78;;;4.43;;
10339;SDS011;5215;48.676;9.022;2022-08-30T00:14:46;5.75;;;3.65;;
10339;SDS011;5215;48.676;9.022;2022-08-30T00:17:13;4.70;;;4.20;;
10339;SDS011;5215;48.676;9.022;2022-08-30T00:19:41;7.05;;;3.95;;
10339;SDS011;5215;48.676;9.022;2022-08-30T00:22:08;5.15;;;3.95;;
10339;SDS011;5215;48.676;9.022;2022-08-30T00:24:35;4.80;;;4.07;;
10339;SDS011;5215;48.676;9.022;2022-08-30T00:27:02;4.78;;;4.07;;
10339;SDS011;5215;48.676;9.022;2022-08-30T00:29:29;4.80;;;4.15;;
10339;SDS011;5215;48.676;9.022;2022-08-30T00:31:55;5.35;;;4.07;;
10339;SDS011;5215;48.676;9.022;2022-08-30T00:34:22;5.10;;;4.20;;
10339;SDS011;5215;48.676;9.022;2022-08-30T00:36:50;5.07;;;4.07;;
10339;SDS011;5215;48.676;9.022;2022-08-30T00:39:16;4.43;;;3.88;;
10339;SDS011;5215;48.676;9.022;2022-08-30T00:41:43;4.70;;;3.65;;
10339;SDS011;5215;48.676;9.022;2022-08-30T00:44:10;4.50;;;4.10;;
10339;SDS011;5215;48.676;9.022;2022-08-30T00:46:37;6.35;;;4.28;;
10339;SDS011;5215;48.676;9.022;2022-08-30T00:49:05;5.57;;;4.32;;
10339;SDS011;5215;48.676;9.022;2022-08-30T00:51:34;5.13;;;4.25;;
10339;SDS011;5215;48.676;9.022;2022-08-30T00:54:03;5.03;;;4.07;;
10339;SDS011;5215;48.676;9.022;2022-08-30T00:56:30;8.02;;;4.22;;
10339;SDS011;5215;48.676;9.022;2022-08-30T00:58:59;7.35;;;4.32;;
10339;SDS011;5215;48.676;9.022;2022-08-30T01:01:28;8.52;;;4.68;;
10339;SDS011;5215;48.676;9.022;2022-08-30T01:03:56;5.45;;;4.47;;
10339;SDS011;5215;48.676;9.022;2022-08-30T01:06:24;5.97;;;4.32;;
10339;SDS011;5215;48.676;9.022;2022-08-30T01:08:52;6.00;;;4.38;;
10339;SDS011;5215;48.676;9.022;2022-08-30T01:11:21;4.82;;;4.40;;
10339;SDS011;5215;48.676;9.022;2022-08-30T01:13:49;4.78;;;4.07;;
10339;SDS011;5215;48.676;9.022;2022-08-30T01:16:18;5.53;;;3.97;;
10339;SDS011;5215;48.676;9.022;2022-08-30T01:18:45;5.63;;;4.28;;
10339;SDS011;5215;48.676;9.022;2022-08-30T01:21:14;4.50;;;4.03;;
10339;SDS011;5215;48.676;9.022;2022-08-30T01:23:46;6.40;;;5.13;;
10339;SDS011;5215;48.676;9.022;2022-08-30T01:26:15;5.47;;;4.80;;
10339;SDS011;5215;48.676;9.022;2022-08-30T01:28:43;4.85;;;4.18;;
10339;SDS011;5215;48.676;9.022;2022-08-30T01:31:12;5.28;;;4.57;;
10339;SDS011;5215;48.676;9.022;2022-08-30T01:33:38;5.05;;;4.55;;
10339;SDS011;5215;48.676;9.022;2022-08-30T01:36:06;6.03;;;4.30;;
10339;SDS011;5215;48.676;9.022;2022-08-30T01:38:37;5.28;;;4.13;;
10339;SDS011;5215;48.676;9.022;2022-08-30T01:41:10;7.88;;;4.18;;
10339;SDS011;5215;48.676;9.022;2022-08-30T01:43:39;7.75;;;4.93;;
10339;SDS011;5215;48.676;9.022;2022-08-30T01:46:06;5.35;;;4.15;;
10339;SDS011;5215;48.676;9.022;2022-08-30T01:48:35;5.05;;;4.30;;
10339;SDS011;5215;48.676;9.022;2022-08-30T01:51:01;4.90;;;4.40;;
10339;SDS011;5215;48.676;9.022;2022-08-30T01:53:28;5.40;;;4.40;;
10339;SDS011;5215;48.676;9.022;2022-08-30T01:55:55;7.85;;;3.90;;
10339;SDS011;5215;48.676;9.022;2022-08-30T01:58:23;7.72;;;4.55;;
10339;SDS011;5215;48.676;9.022;2022-08-30T02:00:51;7.70;;;4.25;;
10339;SDS011;5215;48.676;9.022;2022-08-30T02:03:18;4.72;;;4.18;;
10339;SDS011;5215;48.676;9.022;2022-08-30T02:05:44;5.90;;;4.10;;
10339;SDS011;5215;48.676;9.022;2022-08-30T02:08:12;6.68;;;4.60;;
10339;SDS011;5215;48.676;9.022;2022-08-30T02:10:39;5.47;;;4.30;;
10339;SDS011;5215;48.676;9.022;2022-08-30T02:13:06;4.72;;;4.32;;
10339;SDS011;5215;48.676;9.022;2022-08-30T02:15:33;4.70;;;4.28;;
10339;SDS011;5215;48.676;9.022;2022-08-30T02:18:00;5.07;;;4.45;;
10339;SDS011;5215;48.676;9.022;2022-08-30T02:20:27;5.95;;;4.35;;
10339;SDS011;5215;48.676;9.022;2022-08-30T02:22:53;8.45;;;4.38;;
10339;SDS011;5215;48.676;9.022;2022-08-30T02:25:20;7.97;;;4.13;;
10339;SDS011;5215;48.676;9.022;2022-08-30T02:27:46;6.20;;;4.15;;
10339;SDS011;5215;48.676;9.022;2022-08-30T02:30:13;4.72;;;4.28;;
10339;SDS011;5215;48.676;9.022;2022-08-30T02:32:41;6.53;;;4.40;;
10339;SDS011;5215;48.676;9.022;2022-08-30T02:35:08;7.05;;;4.45;;
10339;SDS011;5215;48.676;9.022;2022-08-30T02:37:35;5.50;;;4.90;;
10339;SDS011;5215;48.676;9.022;2022-08-30T02:40:02;4.95;;;4.30;;
10339;SDS011;5215;48.676;9.022;2022-08-30T02:42:29;6.45;;;4.65;;
10339;SDS011;5215;48.676;9.022;2022-08-30T02:44:56;5.32;;;4.75;;
10339;SDS011;5215;48.676;9.022;2022-08-30T02:47:23;4.95;;;4.13;;
10339;SDS011;5215;48.676;9.022;2022-08-30T02:49:51;6.95;;;4.90;;
10339;SDS011;5215;48.676;9.022;2022-08-30T02:52:17;6.10;;;4.60;;
10339;SDS011;5215;48.676;9.022;2022-08-30T02:54:44;5.57;;;4.60;;
10339;SDS011;5215;48.676;9.022;2022-08-30T02:57:11;7.75;;;4.47;;
10339;SDS011;5215;48.676;9.022;2022-08-30T02:59:38;6.93;;;4.28;;
10339;SDS011;5215;48.676;9.022;2022-08-30T03:02:09;10.55;;;5.25;;
10339;SDS011;5215;48.676;9.022;2022-08-30T03:04:37;5.15;;;4.65;;
10339;SDS011;5215;48.676;9.022;2022-08-30T03:07:05;6.18;;;4.72;;
10339;SDS011;5215;48.676;9.022;2022-08-30T03:09:32;5.18;;;4.68;;
10339;SDS011;5215;48.676;9.022;2022-08-30T03:11:59;6.35;;;4.72;;
10339;SDS011;5215;48.676;9.022;2022-08-30T03:14:26;6.95;;;4.95;;
10339;SDS011;5215;48.676;9.022;2022-08-30T03:16:53;5.13;;;4.57;;
10339;SDS011;5215;48.676;9.022;2022-08-30T03:19:20;5.82;;;3.85;;
10339;SDS011;5215;48.676;9.022;2022-08-30T03:21:47;6.03;;;4.93;;
10339;SDS011;5215;48.676;9.022;2022-08-30T03:24:15;5.07;;;4.60;;
10339;SDS011;5215;48.676;9.022;2022-08-30T03:26:42;5.15;;;4.53;;
10339;SDS011;5215;48.676;9.022;2022-08-30T03:29:09;6.25;;;5.05;;
10339;SDS011;5215;48.676;9.022;2022-08-30T03:31:35;5.43;;;4.80;;
10339;SDS011;5215;48.676;9.022;2022-08-30T03:34:02;6.28;;;4.90;;
10339;SDS011;5215;48.676;9.022;2022-08-30T03:36:30;5.88;;;5.10;;
10339;SDS011;5215;48.676;9.022;2022-08-30T03:38:57;7.85;;;4.80;;
10339;SDS011;5215;48.676;9.022;2022-08-30T03:41:25;6.00;;;4.75;;
10339;SDS011;5215;48.676;9.022;2022-08-30T03:43:51;6.72;;;5.03;;
10339;SDS011;5215;48.676;9.022;2022-08-30T03:46:18;7.30;;;4.93;;
10339;SDS011;5215;48.676;9.022;2022-08-30T03:48:44;5.13;;;4.65;;
10339;SDS011;5215;48.676;9.022;2022-08-30T03:51:11;6.18;;;5.05;;
10339;SDS011;5215;48.676;9.022;2022-08-30T03:53:37;5.45;;;4.70;;
10339;SDS011;5215;48.676;9.022;2022-08-30T03:56:04;5.35;;;4.75;;
10339;SDS011;5215;48.676;9.022;2022-08-30T03:58:32;5.85;;;5.03;;
10339;SDS011;5215;48.676;9.022;2022-08-30T04:00:59;6.22;;;5.05;;
10339;SDS011;5215;48.676;9.022;2022-08-30T04:03:26;6.38;;;4.72;;
10339;SDS011;5215;48.676;9.022;2022-08-30T04:05:52;7.00;;;4.85;;
10339;SDS011;5215;48.676;9.022;2022-08-30T04:08:19;6.25;;;5.03;;
10339;SDS011;5215;48.676;9.022;2022-08-30T04:10:46;5.05;;;4.45;;
10339;SDS011;5215;48.676;9.022;2022-08-30T04:13:13;6.15;;;5.05;;
10339;SDS011;5215;48.676;9.022;2022-08-30T04:15:42;8.00;;;4.90;;
10339;SDS011;5215;48.676;9.022;2022-08-30T04:18:08;9.30;;;4.68;;
10339;SDS011;5215;48.676;9.022;2022-08-30T04:20:35;4.55;;;4.15;;
10339;SDS011;5215;48.676;9.022;2022-08-30T04:23:02;8.88;;;4.88;;
10339;SDS011;5215;48.676;9.022;2022-08-30T04:25:31;7.88;;;4.68;;
10339;SDS011;5215;48.676;9.022;2022-08-30T04:27:58;5.05;;;4.45;;
10339;SDS011;5215;48.676;9.022;2022-08-30T04:30:24;6.07;;;4.82;;
10339;SDS011;5215;48.676;9.022;2022-08-30T04:32:52;6.95;;;4.97;;
10339;SDS011;5215;48.676;9.022;2022-08-30T04:35:19;6.35;;;4.68;;
10339;SDS011;5215;48.676;9.022;2022-08-30T04:37:46;6.43;;;4.90;;
10339;SDS011;5215;48.676;9.022;2022-08-30T04:40:13;5.80;;;5.20;;
10339;SDS011;5215;48.676;9.022;2022-08-30T04:42:40;7.15;;;5.07;;
10339;SDS011;5215;48.676;9.022;2022-08-30T04:45:09;8.32;;;5.57;;
10339;SDS011;5215;48.676;9.022;2022-08-30T04:47:37;6.35;;;4.80;;
10339;SDS011;5215;48.676;9.022;2022-08-30T04:50:05;8.73;;;5.60;;
10339;SDS011;5215;48.676;9.022;2022-08-30T04:52:33;6.05;;;5.25;;
10339;SDS011;5215;48.676;9.022;2022-08-30T04:55:00;8.57;;;5.30;;
10339;SDS011;5215;48.676;9.022;2022-08-30T04:57:26;6.35;;;5.10;;
10339;SDS011;5215;48.676;9.022;2022-08-30T04:59:54;9.10;;;5.68;;
10339;SDS011;5215;48.676;9.022;2022-08-30T05:02:21;7.47;;;5.55;;
10339;SDS011;5215;48.676;9.022;2022-08-30T05:04:48;10.52;;;5.38;;
10339;SDS011;5215;48.676;9.022;2022-08-30T05:07:34;6.13;;;5.30;;
10339;SDS011;5215;48.676;9.022;2022-08-30T05:10:00;6.95;;;5.55;;
10339;SDS011;5215;48.676;9.022;2022-08-30T05:12:28;7.97;;;5.32;;
10339;SDS011;5215;48.676;9.022;2022-08-30T05:14:54;6.28;;;5.32;;
10339;SDS011;5215;48.676;9.022;2022-08-30T05:17:22;6.57;;;5.50;;
10339;SDS011;5215;48.676;9.022;2022-08-30T05:19:49;6.20;;;5.38;;
10339;SDS011;5215;48.676;9.022;2022-08-30T05:22:15;5.65;;;4.93;;
10339;SDS011;5215;48.676;9.022;2022-08-30T05:24:43;7.25;;;5.15;;
10339;SDS011;5215;48.676;9.022;2022-08-30T05:27:10;7.63;;;5.25;;
10339;SDS011;5215;48.676;9.022;2022-08-30T05:29:37;6.65;;;5.47;;
10339;SDS011;5215;48.676;9.022;2022-08-30T05:32:03;8.23;;;6.15;;
10339;SDS011;5215;48.676;9.022;2022-08-30T05:34:30;7.90;;;5.95;;
10339;SDS011;5215;48.676;9.022;2022-08-30T05:36:57;8.57;;;5.38;;
10339;SDS011;5215;48.676;9.022;2022-08-30T05:39:23;10.18;;;5.68;;
10339;SDS011;5215;48.676;9.022;2022-08-30T05:41:55;7.78;;;5.35;;
10339;SDS011;5215;48.676;9.022;2022-08-30T05:44:23;6.10;;;5.07;;
10339;SDS011;5215;48.676;9.022;2022-08-30T05:46:50;9.15;;;5.22;;
10339;SDS011;5215;48.676;9.022;2022-08-30T05:49:18;6.60;;;4.95;;
10339;SDS011;5215;48.676;9.022;2022-08-30T05:51:44;8.57;;;5.90;;
10339;SDS011;5215;48.676;9.022;2022-08-30T05:54:12;6.95;;;5.60;;
10339;SDS011;5215;48.676;9.022;2022-08-30T05:56:40;6.43;;;5.43;;
10339;SDS011;5215;48.676;9.022;2022-08-30T05:59:10;5.90;;;5.13;;
10339;SDS011;5215;48.676;9.022;2022-08-30T06:01:38;7.80;;;5.70;;
10339;SDS011;5215;48.676;9.022;2022-08-30T06:04:07;7.45;;;5.47;;
10339;SDS011;5215;48.676;9.022;2022-08-30T06:06:36;6.90;;;5.70;;
10339;SDS011;5215;48.676;9.022;2022-08-30T06:09:06;5.65;;;5.00;;
10339;SDS011;5215;48.676;9.022;2022-08-30T06:11:34;7.30;;;5.88;;
10339;SDS011;5215;48.676;9.022;2022-08-30T06:14:02;6.65;;;5.55;;
10339;SDS011;5215;48.676;9.022;2022-08-30T06:16:31;9.20;;;5.85;;
10339;SDS011;5215;48.676;9.022;2022-08-30T06:19:00;8.23;;;5.97;;
10339;SDS011;5215;48.676;9.022;2022-08-30T06:21:29;13.07;;;6.43;;
10339;SDS011;5215;48.676;9.022;2022-08-30T06:23:58;15.80;;;7.10;;
10339;SDS011;5215;48.676;9.022;2022-08-30T06:26:25;11.32;;;6.45;;
10339;SDS011;5215;48.676;9.022;2022-08-30T06:28:53;11.95;;;6.85;;
10339;SDS011;5215;48.676;9.022;2022-08-30T06:31:21;12.25;;;6.40;;
10339;SDS011;5215;48.676;9.022;2022-08-30T06:33:50;10.27;;;6.82;;
10339;SDS011;5215;48.676;9.022;2022-08-30T06:36:19;12.05;;;6.93;;
10339;SDS011;5215;48.676;9.022;2022-08-30T06:38:48;10.07;;;6.25;;
10339;SDS011;5215;48.676;9.022;2022-08-30T06:41:16;13.88;;;5.88;;
10339;SDS011;5215;48.676;9.022;2022-08-30T06:43:45;10.65;;;6.13;;
10339;SDS011;5215;48.676;9.022;2022-08-30T06:46:14;10.52;;;6.05;;
10339;SDS011;5215;48.676;9.022;2022-08-30T06:48:42;8.15;;;5.72;;
10339;SDS011;5215;48.676;9.022;2022-08-30T06:51:11;9.43;;;6.05;;
10339;SDS011;5215;48.676;9.022;2022-08-30T06:53:37;8.63;;;6.20;;
10339;SDS011;5215;48.676;9.022;2022-08-30T06:56:04;7.53;;;5.72;;
10339;SDS011;5215;48.676;9.022;2022-08-30T06:58:33;8.15;;;6.10;;
10339;SDS011;5215;48.676;9.022;2022-08-30T07:01:01;9.38;;;5.43;;
10339;SDS011;5215;48.676;9.022;2022-08-30T07:03:28;8.20;;;5.55;;
10339;SDS011;5215;48.676;9.022;2022-08-30T07:05:55;10.10;;;6.18;;
10339;SDS011;5215;48.676;9.022;2022-08-30T07:08:24;5.70;;;5.10;;
10339;SDS011;5215;48.676;9.022;2022-08-30T07:10:51;7.15;;;5.10;;
10339;SDS011;5215;48.676;9.022;2022-08-30T07:13:18;6.93;;;5.20;;
10339;SDS011;5215;48.676;9.022;2022-08-30T07:15:46;6.55;;;4.85;;
10339;SDS011;5215;48.676;9.022;2022-08-30T07:18:13;5.40;;;4.90;;
10339;SDS011;5215;48.676;9.022;2022-08-30T07:20:57;5.60;;;5.07;;
10339;SDS011;5215;48.676;9.022;2022-08-30T07:23:32;6.95;;;5.43;;
10339;SDS011;5215;48.676;9.022;2022-08-30T07:26:01;5.85;;;4.95;;
10339;SDS011;5215;48.676;9.022;2022-08-30T07:28:30;7.50;;;4.68;;
10339;SDS011;5215;48.676;9.022;2022-08-30T07:30:57;5.93;;;5.05;;
10339;SDS011;5215;48.676;9.022;2022-08-30T07:33:24;6.88;;;4.90;;
10339;SDS011;5215;48.676;9.022;2022-08-30T07:35:51;5.90;;;5.30;;
10339;SDS011;5215;48.676;9.022;2022-08-30T07:38:17;5.63;;;4.30;;
10339;SDS011;5215;48.676;9.022;2022-08-30T07:40:45;6.63;;;4.97;;
10339;SDS011;5215;48.676;9.022;2022-08-30T07:43:12;8.63;;;5.45;;
10339;SDS011;5215;48.676;9.022;2022-08-30T07:45:38;5.95;;;4.70;;
10339;SDS011;5215;48.676;9.022;2022-08-30T07:48:05;5.70;;;4.85;;
10339;SDS011;5215;48.676;9.022;2022-08-30T07:50:32;6.20;;;4.85;;
10339;SDS011;5215;48.676;9.022;2022-08-30T07:52:59;5.50;;;4.68;;
10339;SDS011;5215;48.676;9.022;2022-08-30T07:55:26;7.45;;;4.88;;
10339;SDS011;5215;48.676;9.022;2022-08-30T07:57:54;6.90;;;4.78;;
10339;SDS011;5215;48.676;9.022;2022-08-30T08:00:20;6.10;;;5.03;;
10339;SDS011;5215;48.676;9.022;2022-08-30T08:02:47;6.05;;;4.57;;
10339;SDS011;5215;48.676;9.022;2022-08-30T08:05:14;5.13;;;4.63;;
10339;SDS011;5215;48.676;9.022;2022-08-30T08:07:41;8.57;;;5.05;;
10339;SDS011;5215;48.676;9.022;2022-08-30T08:10:08;7.38;;;4.78;;
10339;SDS011;5215;48.676;9.022;2022-08-30T08:12:35;6.05;;;5.45;;
10339;SDS011;5215;48.676;9.022;2022-08-30T08:15:04;5.10;;;4.25;;
10339;SDS011;5215;48.676;9.022;2022-08-30T08:17:31;7.07;;;5.25;;
10339;SDS011;5215;48.676;9.022;2022-08-30T08:19:59;8.45;;;5.15;;
10339;SDS011;5215;48.676;9.022;2022-08-30T08:22:25;8.05;;;5.30;;
10339;SDS011;5215;48.676;9.022;2022-08-30T08:24:52;5.80;;;5.20;;
10339;SDS011;5215;48.676;9.022;2022-08-30T08:27:18;5.07;;;4.57;;
10339;SDS011;5215;48.676;9.022;2022-08-30T08:29:45;5.97;;;4.80;;
10339;SDS011;5215;48.676;9.022;2022-08-30T08:32:13;5.03;;;4.53;;
10339;SDS011;5215;48.676;9.022;2022-08-30T08:34:40;8.23;;;4.97;;
10339;SDS011;5215;48.676;9.022;2022-08-30T08:37:06;5.13;;;4.55;;
10339;SDS011;5215;48.676;9.022;2022-08-30T08:39:33;5.38;;;4.25;;
10339;SDS011;5215;48.676;9.022;2022-08-30T08:42:01;5.85;;;3.83;;
10339;SDS011;5215;48.676;9.022;2022-08-30T08:44:40;5.13;;;4.40;;
10339;SDS011;5215;48.676;9.022;2022-08-30T08:47:18;7.15;;;5.18;;
10339;SDS011;5215;48.676;9.022;2022-08-30T08:49:50;6.50;;;4.57;;
10339;SDS011;5215;48.676;9.022;2022-08-30T08:52:22;5.85;;;4.22;;
10339;SDS011;5215;48.676;9.022;2022-08-30T08:55:10;5.32;;;4.45;;
10339;SDS011;5215;48.676;9.022;2022-08-30T08:57:39;7.68;;;4.88;;
10339;SDS011;5215;48.676;9.022;2022-08-30T09:00:07;6.93;;;4.80;;
10339;SDS011;5215;48.676;9.022;2022-08-30T09:02:38;6.35;;;4.60;;
10339;SDS011;5215;48.676;9.022;2022-08-30T09:05:07;7.90;;;4.38;;
10339;SDS011;5215;48.676;9.022;2022-08-30T09:07:39;7.25;;;4.80;;
10339;SDS011;5215;48.676;9.022;2022-08-30T09:10:08;6.75;;;4.63;;
10339;SDS011;5215;48.676;9.022;2022-08-30T09:12:35;7.15;;;5.00;;
10339;SDS011;5215;48.676;9.022;2022-08-30T09:15:03;7.93;;;4.97;;
10339;SDS011;5215;48.676;9.022;2022-08-30T09:17:47;7.35;;;4.63;;
10339;SDS011;5215;48.676;9.022;2022-08-30T09:20:22;5.35;;;4.85;;
10339;SDS011;5215;48.676;9.022;2022-08-30T09:22:51;7.25;;;4.72;;
10339;SDS011;5215;48.676;9.022;2022-08-30T09:25:19;6.25;;;4.63;;
10339;SDS011;5215;48.676;9.022;2022-08-30T09:27:50;5.80;;;4.65;;
10339;SDS011;5215;48.676;9.022;2022-08-30T09:30:19;6.25;;;4.63;;
10339;SDS011;5215;48.676;9.022;2022-08-30T09:32:52;5.55;;;4.70;;
10339;SDS011;5215;48.676;9.022;2022-08-30T09:35:20;4.57;;;4.18;;
10339;SDS011;5215;48.676;9.022;2022-08-30T09:37:51;5.18;;;4.50;;
10339;SDS011;5215;48.676;9.022;2022-08-30T09:40:23;5.82;;;4.43;;
10339;SDS011;5215;48.676;9.022;2022-08-30T09:43:00;6.55;;;3.75;;
10339;SDS011;5215;48.676;9.022;2022-08-30T09:45:30;5.45;;;4.03;;
10339;SDS011;5215;48.676;9.022;2022-08-30T09:48:01;5.05;;;4.03;;
10339;SDS011;5215;48.676;9.022;2022-08-30T09:50:48;5.40;;;4.30;;
10339;SDS011;5215;48.676;9.022;2022-08-30T09:53:24;5.13;;;4.72;;
10339;SDS011;5215;48.676;9.022;2022-08-30T09:56:01;6.20;;;4.35;;
10339;SDS011;5215;48.676;9.022;2022-08-30T09:58:36;6.13;;;4.53;;
10339;SDS011;5215;48.676;9.022;2022-08-30T10:01:13;6.78;;;4.15;;
10339;SDS011;5215;48.676;9.022;2022-08-30T10:03:48;5.13;;;3.92;;
10339;SDS011;5215;48.676;9.022;2022-08-30T10:06:23;4.80;;;4.00;;
10339;SDS011;5215;48.676;9.022;2022-08-30T10:08:59;4.35;;;3.95;;
10339;SDS011;5215;48.676;9.022;2022-08-30T10:11:34;5.35;;;4.32;;
10339;SDS011;5215;48.676;9.022;2022-08-30T10:14:15;5.35;;;4.30;;
10339;SDS011;5215;48.676;9.022;2022-08-30T10:17:12;4.78;;;4.22;;
10339;SDS011;5215;48.676;9.022;2022-08-30T10:19:59;4.50;;;3.83;;
10339;SDS011;5215;48.676;9.022;2022-08-30T10:22:36;6.30;;;4.22;;
10339;SDS011;5215;48.676;9.022;2022-08-30T10:25:09;4.97;;;4.22;;
10339;SDS011;5215;48.676;9.022;2022-08-30T10:27:40;4.90;;;3.90;;
10339;SDS011;5215;48.676;9.022;2022-08-30T10:30:13;4.22;;;3.83;;
10339;SDS011;5215;48.676;9.022;2022-08-30T10:32:43;5.13;;;4.22;;
10339;SDS011;5215;48.676;9.022;2022-08-30T10:35:16;4.38;;;3.80;;
10339;SDS011;5215;48.676;9.022;2022-08-30T10:37:47;4.70;;;4.28;;
10339;SDS011;5215;48.676;9.022;2022-08-30T10:40:20;4.40;;;4.07;;
10339;SDS011;5215;48.676;9.022;2022-08-30T10:43:12;4.43;;;4.00;;
10339;SDS011;5215;48.676;9.022;2022-08-30T10:45:46;5.13;;;3.63;;
10339;SDS011;5215;48.676;9.022;2022-08-30T10:48:16;4.13;;;3.83;;
10339;SDS011;5215;48.676;9.022;2022-08-30T10:50:48;5.82;;;4.05;;
10339;SDS011;5215;48.676;9.022;2022-08-30T10:53:20;3.47;;;3.28;;
10339;SDS011;5215;48.676;9.022;2022-08-30T10:55:54;5.78;;;4.20;;
10339;SDS011;5215;48.676;9.022;2022-08-30T10:58:25;5.07;;;4.18;;
10339;SDS011;5215;48.676;9.022;2022-08-30T11:00:55;6.95;;;3.65;;
10339;SDS011;5215;48.676;9.022;2022-08-30T11:03:37;4.03;;;3.70;;
10339;SDS011;5215;48.676;9.022;2022-08-30T11:06:23;3.90;;;3.60;;
10339;SDS011;5215;48.676;9.022;2022-08-30T11:09:05;4.93;;;4.18;;
10339;SDS011;5215;48.676;9.022;2022-08-30T11:11:49;7.00;;;4.10;;
10339;SDS011;5215;48.676;9.022;2022-08-30T11:14:26;6.45;;;4.07;;
10339;SDS011;5215;48.676;9.022;2022-08-30T11:16:55;6.35;;;4.18;;
10339;SDS011;5215;48.676;9.022;2022-08-30T11:19:25;4.05;;;3.65;;
10339;SDS011;5215;48.676;9.022;2022-08-30T11:22:08;4.78;;;3.88;;
10339;SDS011;5215;48.676;9.022;2022-08-30T11:27:39;4.85;;;4.45;;
10339;SDS011;5215;48.676;9.022;2022-08-30T11:33:28;4.10;;;3.65;;
10339;SDS011;5215;48.676;9.022;2022-08-30T11:36:05;4.63;;;4.07;;
10339;SDS011;5215;48.676;9.022;2022-08-30T11:41:33;4.38;;;3.97;;
10339;SDS011;5215;48.676;9.022;2022-08-30T11:44:10;5.70;;;3.75;;
10339;SDS011;5215;48.676;9.022;2022-08-30T11:46:39;4.10;;;3.58;;
10339;SDS011;5215;48.676;9.022;2022-08-30T11:52:10;4.82;;;4.22;;
10339;SDS011;5215;48.676;9.022;2022-08-30T11:54:53;4.15;;;3.80;;
10339;SDS011;5215;48.676;9.022;2022-08-30T11:57:35;3.92;;;3.63;;
10339;SDS011;5215;48.676;9.022;2022-08-30T12:00:08;4.72;;;4.20;;
10339;SDS011;5215;48.676;9.022;2022-08-30T12:02:46;4.35;;;4.00;;
10339;SDS011;5215;48.676;9.022;2022-08-30T12:14:11;4.88;;;4.38;;
10339;SDS011;5215;48.676;9.022;2022-08-30T12:17:20;4.47;;;4.07;;
10339;SDS011;5215;48.676;9.022;2022-08-30T12:20:10;4.43;;;4.03;;
10339;SDS011;5215;48.676;9.022;2022-08-30T12:22:43;5.32;;;4.05;;
10339;SDS011;5215;48.676;9.022;2022-08-30T12:25:14;4.30;;;3.90;;
10339;SDS011;5215;48.676;9.022;2022-08-30T12:27:45;4.97;;;4.38;;
10339;SDS011;5215;48.676;9.022;2022-08-30T12:30:13;4.90;;;4.43;;
10339;SDS011;5215;48.676;9.022;2022-08-30T12:32:43;6.13;;;4.18;;
10339;SDS011;5215;48.676;9.022;2022-08-30T12:35:16;5.03;;;4.40;;
10339;SDS011;5215;48.676;9.022;2022-08-30T12:37:52;4.45;;;4.15;;
10339;SDS011;5215;48.676;9.022;2022-08-30T12:40:22;4.88;;;4.20;;
10339;SDS011;5215;48.676;9.022;2022-08-30T12:42:50;4.30;;;4.00;;
10339;SDS011;5215;48.676;9.022;2022-08-30T12:45:20;5.00;;;4.20;;
10339;SDS011;5215;48.676;9.022;2022-08-30T12:47:50;3.88;;;3.60;;
10339;SDS011;5215;48.676;9.022;2022-08-30T12:50:22;5.32;;;3.83;;
10339;SDS011;5215;48.676;9.022;2022-08-30T12:52:54;4.07;;;3.67;;
10339;SDS011;5215;48.676;9.022;2022-08-30T12:55:24;4.45;;;4.07;;
10339;SDS011;5215;48.676;9.022;2022-08-30T12:57:57;4.35;;;3.90;;
10339;SDS011;5215;48.676;9.022;2022-08-30T13:00:27;4.05;;;3.75;;
10339;SDS011;5215;48.676;9.022;2022-08-30T13:02:56;4.10;;;3.70;;
10339;SDS011;5215;48.676;9.022;2022-08-30T13:05:32;3.90;;;3.60;;
10339;SDS011;5215;48.676;9.022;2022-08-30T13:08:11;4.35;;;3.90;;
10339;SDS011;5215;48.676;9.022;2022-08-30T13:10:48;3.78;;;3.47;;
10339;SDS011;5215;48.676;9.022;2022-08-30T13:13:25;4.35;;;3.95;;
10339;SDS011;5215;48.676;9.022;2022-08-30T13:16:05;4.68;;;3.63;;
10339;SDS011;5215;48.676;9.022;2022-08-30T13:18:36;4.55;;;3.83;;
10339;SDS011;5215;48.676;9.022;2022-08-30T13:21:10;4.20;;;3.78;;
10339;SDS011;5215;48.676;9.022;2022-08-30T13:23:46;4.03;;;3.70;;
10339;SDS011;5215;48.676;9.022;2022-08-30T13:26:12;5.85;;;3.45;;
10339;SDS011;5215;48.676;9.022;2022-08-30T13:28:44;5.07;;;3.70;;
10339;SDS011;5215;48.676;9.022;2022-08-30T13:31:13;4.20;;;3.90;;
10339;SDS011;5215;48.676;9.022;2022-08-30T13:33:40;4.00;;;3.70;;
10339;SDS011;5215;48.676;9.022;2022-08-30T13:36:09;3.72;;;3.42;;
10339;SDS011;5215;48.676;9.022;2022-08-30T13:38:37;4.22;;;3.75;;
10339;SDS011;5215;48.676;9.022;2022-08-30T13:41:03;4.35;;;3.95;;
10339;SDS011;5215;48.676;9.022;2022-08-30T13:43:30;3.72;;;3.42;;
10339;SDS011;5215;48.676;9.022;2022-08-30T13:45:57;4.00;;;3.60;;
10339;SDS011;5215;48.676;9.022;2022-08-30T13:48:25;4.18;;;3.78;;
10339;SDS011;5215;48.676;9.022;2022-08-30T13:50:52;4.47;;;4.07;;
10339;SDS011;5215;48.676;9.022;2022-08-30T13:53:19;4.10;;;3.53;;
10339;SDS011;5215;48.676;9.022;2022-08-30T13:55:46;4.28;;;3.88;;
10339;SDS011;5215;48.676;9.022;2022-08-30T13:58:12;4.05;;;3.67;;
10339;SDS011;5215;48.676;9.022;2022-08-30T14:00:40;5.50;;;3.88;;
10339;SDS011;5215;48.676;9.022;2022-08-30T14:03:07;5.18;;;4.57;;
10339;SDS011;5215;48.676;9.022;2022-08-30T14:05:36;4.38;;;3.72;;
10339;SDS011;5215;48.676;9.022;2022-08-30T14:08:05;4.28;;;3.88;;
10339;SDS011;5215;48.676;9.022;2022-08-30T14:10:34;3.75;;;3.45;;
10339;SDS011;5215;48.676;9.022;2022-08-30T14:13:02;4.00;;;3.65;;
10339;SDS011;5215;48.676;9.022;2022-08-30T14:15:29;4.05;;;3.72;;
10339;SDS011;5215;48.676;9.022;2022-08-30T14:17:56;4.13;;;3.72;;
10339;SDS011;5215;48.676;9.022;2022-08-30T14:20:23;4.20;;;3.90;;
10339;SDS011;5215;48.676;9.022;2022-08-30T14:22:51;5.32;;;4.00;;
10339;SDS011;5215;48.676;9.022;2022-08-30T14:25:18;4.32;;;3.92;;
10339;SDS011;5215;48.676;9.022;2022-08-30T14:27:44;3.88;;;3.58;;
10339;SDS011;5215;48.676;9.022;2022-08-30T14:30:11;4.30;;;3.60;;
10339;SDS011;5215;48.676;9.022;2022-08-30T14:32:38;6.43;;;4.18;;
10339;SDS011;5215;48.676;9.022;2022-08-30T14:35:05;3.90;;;3.40;;
10339;SDS011;5215;48.676;9.022;2022-08-30T14:37:32;4.32;;;3.92;;
10339;SDS011;5215;48.676;9.022;2022-08-30T14:40:01;6.63;;;4.00;;
10339;SDS011;5215;48.676;9.022;2022-08-30T14:42:28;5.45;;;3.67;;
10339;SDS011;5215;48.676;9.022;2022-08-30T14:44:55;4.10;;;3.70;;
10339;SDS011;5215;48.676;9.022;2022-08-30T14:47:22;4.15;;;3.53;;
10339;SDS011;5215;48.676;9.022;2022-08-30T14:49:48;4.32;;;3.80;;
10339;SDS011;5215;48.676;9.022;2022-08-30T14:52:15;4.25;;;3.85;;
10339;SDS011;5215;48.676;9.022;2022-08-30T14:54:42;5.80;;;4.05;;
10339;SDS011;5215;48.676;9.022;2022-08-30T14:57:09;4.10;;;3.70;;
10339;SDS011;5215;48.676;9.022;2022-08-30T14:59:36;4.43;;;3.47;;
10339;SDS011;5215;48.676;9.022;2022-08-30T15:02:03;4.18;;;3.88;;
10339;SDS011;5215;48.676;9.022;2022-08-30T15:04:29;4.20;;;3.90;;
10339;SDS011;5215;48.676;9.022;2022-08-30T15:06:56;3.97;;;3.58;;
10339;SDS011;5215;48.676;9.022;2022-08-30T15:09:23;4.03;;;3.72;;
10339;SDS011;5215;48.676;9.022;2022-08-30T15:11:51;4.43;;;3.88;;
10339;SDS011;5215;48.676;9.022;2022-08-30T15:14:20;4.10;;;3.70;;
10339;SDS011;5215;48.676;9.022;2022-08-30T15:16:47;4.72;;;3.67;;
10339;SDS011;5215;48.676;9.022;2022-08-30T15:19:13;4.07;;;3.67;;
10339;SDS011;5215;48.676;9.022;2022-08-30T15:21:42;3.90;;;3.60;;
10339;SDS011;5215;48.676;9.022;2022-08-30T15:24:12;4.13;;;3.70;;
10339;SDS011;5215;48.676;9.022;2022-08-30T15:26:40;4.75;;;4.35;;
10339;SDS011;5215;48.676;9.022;2022-08-30T15:29:08;4.53;;;4.13;;
10339;SDS011;5215;48.676;9.022;2022-08-30T15:31:37;4.35;;;3.95;;
10339;SDS011;5215;48.676;9.022;2022-08-30T15:34:04;3.70;;;3.40;;
10339;SDS011;5215;48.676;9.022;2022-08-30T15:36:31;5.55;;;3.70;;